Terminal Aerodrome Forecast
Issued by NWS Los Angeles, CA

Home | Current Version | Previous Version | Text Only | Print | Product List | Glossary On
Versions: 1 2 3 4 5 6 7 8 9 10 11 12 13
000
FTUS46 KLOX 180545
TAFSMX
TAF
KSMX 180545Z 1806/1906 VRB03KT P6SM SKC
     FM181100 VRB03KT 1/2SM FG VV001
     FM181600 VRB03KT 2SM BR OVC005
     FM181800 32008KT P6SM BKN015
     FM182000 32017G25KT P6SM SKC
     FM190300 32010KT P6SM SKC=

USA.gov is the U.S. government's official web portal to all federal, state and local government web resources and services.